Aeroporto :
LOGIN :

Iscrizione | Disclaimer

   EN    FR    IT 

 










Sommario :    VFR   VFR Marginale   IFR   IFR Intensivo   IFR Molto Intensivo
Visibilità : 
Base nubi : 
>= 8 km
>= 3000ft
5 / 8 km
1000 / 3000 ft
1500m / 5 km
500 / 1000 ft
800 / 1500m
200 / 500 ft
< 800m
< 200 ft
Simboli :   Temporali  Nebbia  Neve Forte  Precipitazioni Forti  Vento > 20 kt
SIGMETs :   Varie  Temporali  Ghiacco  Turbolenza  Onda orograficha  Ceneri Vulcaniche






- Altitudine del aeroporto : 33 ft
- Codice IATA : PLQ


EYPA - Palanga

ULTIMO METAR :
  • 270950Z 22005KT 170V300 9999 BKN003 12/10 Q1029

METARs OBSOLETI :
  • 270920Z 22006KT 180V270 7000 BKN002 11/09 Q1029
  • 270850Z 23006KT 190V280 9999 BKN002 11/09 Q1030
  • 270820Z 23007KT 190V270 9999 FEW005 SCT083 11/08 Q1029 RESHRA
  • 270750Z 25005KT 190V310 CAVOK 12/09 Q1030
  • 270720Z VRB04KT CAVOK 13/09 Q1030

TAF AMD TAF EYPA
Valido dal 27 a 08 ore il 28 a 06 ore UTC


270834Z 2708/2806 VRB05KT 6000 OVC002
TEMPO 2709/2712 0800 FG
BECMG 2712/2713 SCT030
BECMG 2800/2802 SHRA BKN006 BKN015CB



MetMap, La meteo Aeronautica in un colpo d'occhio ! - Copyright ORBIFLY Dicembre 2007 - Disclaimer

ORBIFLY MET'MAP TEAM :

Programmazione e sviluppo : Alexandra Zaïnal
Concezione : Baudouin d'Aumeries
Aiuto per la programmazione : Marc-Olivier Méhu
Supporto tecnico e logistico : Manuel Goepfert
Aiuto per la traduzione : Arnaldo La Scala

Contatto : metmap@orbifly.com




FONTI E CREDITI :

   NOAA